Time;durP1;ratioP1;P1;durP2;ratioP2;P2;SDS_P1;SDS_P2;PMS_P1;PMS_P2;Temp;Humidity;BMP_temperature;BMP_pressure;BME280_temperature;BME280_humidity;BME280_pressure;Samples;Min_cycle;Max_cycle;Signal;HPM_P1;HPM_P2
2023/05/07 00:02:34;;;;;;;12.63;7.37;;;7.60;99.90;;;;;;5076429;28;20238;-72
2023/05/07 00:05:23;;;;;;;10.00;7.20;;;7.80;99.90;;;;;;5085415;28;20671;-71
2023/05/07 00:08:12;;;;;;;9.43;6.30;;;7.80;99.90;;;;;;5081153;28;20299;-72
2023/05/07 00:11:01;;;;;;;9.87;6.90;;;7.60;99.90;;;;;;5083789;28;20245;-73
2023/05/07 00:13:49;;;;;;;8.97;7.17;;;7.60;99.90;;;;;;5078245;28;20242;-72
2023/05/07 00:16:38;;;;;;;10.77;7.50;;;7.60;99.90;;;;;;5068522;28;20273;-73
2023/05/07 00:19:28;;;;;;;11.80;8.13;;;7.50;99.90;;;;;;5087119;28;20231;-73
2023/05/07 00:22:17;;;;;;;11.93;7.50;;;7.60;99.90;;;;;;5086018;28;20231;-73
2023/05/07 00:25:07;;;;;;;14.60;8.20;;;7.50;99.90;;;;;;5075418;28;20602;-74
2023/05/07 00:27:57;;;;;;;14.10;8.63;;;7.50;99.90;;;;;;5081969;28;20234;-73
2023/05/07 00:30:46;;;;;;;13.67;8.87;;;7.60;99.90;;;;;;5083647;28;20643;-74
2023/05/07 00:33:35;;;;;;;12.20;7.37;;;7.70;99.90;;;;;;5076844;28;20230;-74
2023/05/07 00:36:26;;;;;;;12.23;7.67;;;7.40;99.90;;;;;;5079423;28;20694;-74
2023/05/07 00:39:15;;;;;;;14.57;8.70;;;7.50;99.90;;;;;;5076783;28;20250;-73
2023/05/07 00:42:04;;;;;;;13.57;7.97;;;7.70;99.90;;;;;;5083378;28;21081;-73
2023/05/07 00:44:55;;;;;;;12.47;8.03;;;7.50;99.90;;;;;;5080088;28;20218;-73
2023/05/07 00:47:44;;;;;;;11.77;8.07;;;7.50;99.90;;;;;;5072391;28;20226;-74
2023/05/07 00:50:34;;;;;;;12.30;8.17;;;7.50;99.90;;;;;;5097898;28;20219;-72
2023/05/07 00:53:24;;;;;;;11.53;8.00;;;;;;;;;;5074019;28;20235;-74
2023/05/07 00:56:14;;;;;;;15.87;8.60;;;7.30;99.90;;;;;;5076310;28;20231;-74
2023/05/07 00:59:03;;;;;;;17.50;9.13;;;7.30;99.90;;;;;;5074462;28;20385;-73
2023/05/07 01:01:53;;;;;;;17.47;9.33;;;7.30;99.90;;;;;;5077669;28;20527;-73
2023/05/07 01:04:41;;;;;;;11.27;9.03;;;7.30;99.90;;;;;;5083362;28;20227;-73
2023/05/07 01:07:33;;;;;;;14.33;8.40;;;7.30;99.90;;;;;;5083167;28;20311;-74
2023/05/07 01:10:24;;;;;;;11.47;7.57;;;7.20;99.90;;;;;;5082806;28;20320;-73
2023/05/07 01:13:15;;;;;;;13.60;8.50;;;7.10;99.90;;;;;;5081421;28;20281;-74
2023/05/07 01:16:05;;;;;;;17.40;9.50;;;7.10;99.90;;;;;;5070299;28;20309;-74
2023/05/07 01:18:54;;;;;;;15.70;9.67;;;7.20;99.90;;;;;;5085142;28;20236;-75
2023/05/07 01:21:47;;;;;;;14.87;9.07;;;7.30;99.90;;;;;;5076370;28;20211;-74
2023/05/07 01:24:39;;;;;;;13.87;9.50;;;7.10;99.90;;;;;;5085509;28;20231;-73
2023/05/07 01:27:29;;;;;;;12.80;9.20;;;7.20;99.90;;;;;;5086765;28;20231;-74
2023/05/07 01:30:21;;;;;;;17.77;10.77;;;7.30;99.90;;;;;;5077527;28;20246;-71
2023/05/07 01:33:14;;;;;;;13.53;8.63;;;7.40;99.90;;;;;;5081225;28;20369;-75
2023/05/07 01:36:06;;;;;;;15.73;9.00;;;7.10;99.90;;;;;;5081859;28;20312;-73
2023/05/07 01:38:58;;;;;;;18.83;9.43;;;7.10;99.90;;;;;;5077795;28;20706;-74
2023/05/07 01:41:48;;;;;;;13.07;8.37;;;7.00;99.90;;;;;;5076241;28;20216;-74
2023/05/07 01:44:37;;;;;;;11.70;8.97;;;7.00;99.90;;;;;;5096938;28;20299;-73
2023/05/07 01:47:26;;;;;;;13.00;8.20;;;7.10;99.90;;;;;;5077158;28;20214;-72
2023/05/07 01:50:18;;;;;;;10.53;7.57;;;7.00;99.90;;;;;;5105568;27;20240;-73
2023/05/07 01:53:07;;;;;;;12.43;8.90;;;7.00;99.90;;;;;;5063782;28;20230;-73
2023/05/07 01:55:56;;;;;;;13.37;8.93;;;7.10;99.90;;;;;;5099901;27;20242;-74
2023/05/07 01:58:47;;;;;;;13.23;9.10;;;7.00;99.90;;;;;;5078110;28;20259;-73
2023/05/07 02:01:36;;;;;;;15.00;9.20;;;7.00;99.90;;;;;;5076844;28;20273;-72
2023/05/07 02:04:25;;;;;;;12.57;8.50;;;7.20;99.90;;;;;;5074112;28;20585;-74
2023/05/07 02:07:14;;;;;;;13.30;8.77;;;7.00;99.90;;;;;;5076294;28;20235;-74
2023/05/07 02:10:04;;;;;;;16.83;8.43;;;7.10;99.90;;;;;;5081280;28;20235;-74
2023/05/07 02:12:52;;;;;;;14.87;8.53;;;7.10;99.90;;;;;;5081844;28;20310;-77
2023/05/07 02:15:46;;;;;;;11.73;7.23;;;7.00;99.90;;;;;;5071515;28;20227;-73
2023/05/07 02:18:35;;;;;;;14.43;8.63;;;7.10;99.90;;;;;;5101433;27;20402;-74
2023/05/07 02:21:24;;;;;;;12.43;8.90;;;7.10;99.90;;;;;;5082690;28;20647;-74
2023/05/07 02:24:13;;;;;;;12.60;8.70;;;7.30;99.90;;;;;;5081005;28;20266;-73
2023/05/07 02:27:03;;;;;;;12.00;7.90;;;7.20;99.90;;;;;;5082250;28;20604;-74
2023/05/07 02:29:51;;;;;;;12.47;7.40;;;7.20;99.90;;;;;;5075791;28;20318;-73
2023/05/07 02:32:42;;;;;;;9.07;6.23;;;7.10;99.90;;;;;;5081292;28;20725;-73
2023/05/07 02:35:31;;;;;;;9.43;7.47;;;7.00;99.90;;;;;;5083555;28;20273;-73
2023/05/07 02:38:19;;;;;;;9.30;7.00;;;7.00;99.90;;;;;;5076077;28;20359;-74
2023/05/07 02:41:08;;;;;;;8.80;6.60;;;7.10;99.90;;;;;;5083140;28;20614;-73
2023/05/07 02:43:57;;;;;;;6.67;5.80;;;7.20;99.90;;;;;;5066543;28;20238;-72
2023/05/07 02:46:46;;;;;;;9.20;6.10;;;7.10;99.90;;;;;;5076996;28;20399;-73
2023/05/07 02:49:37;;;;;;;7.33;5.83;;;7.10;99.90;;;;;;5076647;28;20279;-73
2023/05/07 02:52:26;;;;;;;7.90;6.50;;;7.10;99.90;;;;;;5071455;28;20362;-74
2023/05/07 02:55:15;;;;;;;7.80;6.53;;;7.10;99.90;;;;;;5077025;28;20319;-73
2023/05/07 02:58:04;;;;;;;9.00;6.30;;;7.20;99.90;;;;;;5089013;28;20294;-73
2023/05/07 03:00:56;;;;;;;8.80;6.10;;;7.10;99.90;;;;;;5081319;27;20236;-73
2023/05/07 03:04:12;;;;;;;10.83;5.67;;;7.10;99.90;;;;;;5083900;28;20223;-73
2023/05/07 03:07:03;;;;;;;8.43;5.80;;;7.20;99.90;;;;;;5082646;28;20229;-73
2023/05/07 03:09:51;;;;;;;8.77;6.03;;;7.20;99.90;;;;;;5078562;28;20231;-73
2023/05/07 03:12:40;;;;;;;9.57;5.73;;;7.30;99.90;;;;;;5079569;28;20235;-73
2023/05/07 03:15:32;;;;;;;7.03;5.00;;;7.20;99.90;;;;;;5085367;28;20253;-73
2023/05/07 03:18:20;;;;;;;7.13;5.43;;;7.20;99.90;;;;;;5078510;28;20226;-73
2023/05/07 03:21:09;;;;;;;7.83;5.30;;;7.40;99.90;;;;;;5083566;28;20593;-74
2023/05/07 03:24:00;;;;;;;8.07;5.30;;;7.30;99.90;;;;;;5083654;28;20316;-73
2023/05/07 03:26:49;;;;;;;6.43;4.80;;;7.40;99.90;;;;;;5078567;28;20306;-73
2023/05/07 03:29:38;;;;;;;7.73;5.53;;;7.40;99.90;;;;;;5066932;28;20709;-74
2023/05/07 03:32:27;;;;;;;9.57;5.47;;;7.40;99.90;;;;;;5087333;28;20232;-73
2023/05/07 03:35:16;;;;;;;6.17;5.17;;;7.20;99.90;;;;;;5079875;28;20302;-73
2023/05/07 03:38:05;;;;;;;7.33;4.87;;;7.20;99.90;;;;;;5080786;28;20234;-73
2023/05/07 03:40:58;;;;;;;6.83;4.97;;;7.00;99.90;;;;;;5081562;28;20261;-74
2023/05/07 03:43:48;;;;;;;6.23;4.90;;;7.20;99.90;;;;;;5070913;28;20230;-73
2023/05/07 03:46:38;;;;;;;5.87;4.90;;;7.10;99.90;;;;;;5066637;28;20854;-74
2023/05/07 03:49:29;;;;;;;6.27;4.60;;;7.20;99.90;;;;;;5072761;28;20586;-74
2023/05/07 03:52:22;;;;;;;5.67;4.17;;;7.30;99.90;;;;;;5086260;28;20235;-74
2023/05/07 03:55:11;;;;;;;5.80;4.33;;;7.30;99.90;;;;;;5085003;28;20231;-73
2023/05/07 03:58:04;;;;;;;6.37;4.47;;;7.40;99.90;;;;;;5082137;27;20297;-75
2023/05/07 04:00:53;;;;;;;6.53;5.37;;;7.40;99.90;;;;;;5085043;28;20216;-73
2023/05/07 04:03:47;;;;;;;7.07;5.00;;;7.50;99.90;;;;;;5082058;28;20561;-73
2023/05/07 04:06:36;;;;;;;5.80;4.93;;;7.50;99.90;;;;;;5080346;28;20380;-73
2023/05/07 04:09:25;;;;;;;6.20;4.43;;;7.30;99.90;;;;;;5079043;28;20896;-72
2023/05/07 04:12:16;;;;;;;8.50;4.40;;;7.50;99.90;;;;;;5084307;28;20227;-72
2023/05/07 04:15:07;;;;;;;6.60;4.40;;;7.50;99.90;;;;;;5078492;28;21012;-72
2023/05/07 04:17:56;;;;;;;4.70;3.80;;;7.50;99.90;;;;;;5073585;28;20235;-74
2023/05/07 04:20:46;;;;;;;7.70;4.40;;;7.60;99.90;;;;;;5075791;28;20223;-73
2023/05/07 04:23:36;;;;;;;5.63;4.30;;;7.60;99.90;;;;;;5079868;28;20253;-73
2023/05/07 04:26:30;;;;;;;4.63;3.87;;;7.50;99.90;;;;;;5101512;27;20236;-73
2023/05/07 04:29:19;;;;;;;6.37;4.20;;;7.60;99.90;;;;;;5082872;28;20232;-73
2023/05/07 04:32:09;;;;;;;5.33;4.40;;;7.50;99.90;;;;;;5072115;28;20282;-74
2023/05/07 04:35:01;;;;;;;4.50;3.93;;;7.60;99.90;;;;;;5080263;28;20246;-72
2023/05/07 04:37:50;;;;;;;4.40;4.00;;;7.50;99.90;;;;;;5078178;28;20223;-73
2023/05/07 04:40:39;;;;;;;6.50;4.20;;;7.50;99.90;;;;;;5104439;27;20954;-74
2023/05/07 04:43:30;;;;;;;5.20;3.60;;;7.40;99.90;;;;;;5074691;28;20292;-72
2023/05/07 04:46:20;;;;;;;4.10;3.57;;;7.30;99.90;;;;;;5081971;28;20259;-73
2023/05/07 04:49:12;;;;;;;8.80;3.80;;;7.40;99.90;;;;;;5069810;28;20234;-71
2023/05/07 04:52:01;;;;;;;4.40;3.60;;;7.60;99.90;;;;;;5080486;28;20313;-73
2023/05/07 04:54:49;;;;;;;4.50;3.63;;;7.40;99.90;;;;;;5081217;28;20230;-72
2023/05/07 04:57:39;;;;;;;5.40;3.50;;;7.40;99.90;;;;;;5084955;28;20653;-71
2023/05/07 05:00:29;;;;;;;4.53;3.40;;;7.40;99.90;;;;;;5084798;28;20222;-73
2023/05/07 05:03:20;;;;;;;7.37;3.27;;;7.50;99.90;;;;;;5073791;28;20250;-74
2023/05/07 05:06:11;;;;;;;4.83;3.30;;;7.40;99.90;;;;;;5085566;28;20718;-73
2023/05/07 05:08:59;;;;;;;4.63;4.10;;;7.40;99.90;;;;;;5077455;28;20928;-74
2023/05/07 05:11:50;;;;;;;4.67;3.30;;;7.70;99.90;;;;;;5078539;28;20226;-73
2023/05/07 05:14:39;;;;;;;3.70;3.00;;;7.60;99.90;;;;;;5075338;28;20386;-73
2023/05/07 05:17:29;;;;;;;5.33;3.40;;;7.50;99.90;;;;;;5067703;28;20609;-73
2023/05/07 05:20:18;;;;;;;4.90;3.20;;;7.50;99.90;;;;;;5077574;28;20249;-72
2023/05/07 05:23:11;;;;;;;4.93;3.47;;;7.70;99.90;;;;;;5084576;28;20314;-72
2023/05/07 05:26:00;;;;;;;3.90;3.40;;;7.90;99.90;;;;;;5075672;28;20223;-73
2023/05/07 05:28:52;;;;;;;4.23;3.70;;;8.00;99.90;;;;;;5077276;28;20231;-73
2023/05/07 05:31:44;;;;;;;4.20;3.23;;;8.10;99.90;;;;;;5081797;28;20239;-73
2023/05/07 05:34:33;;;;;;;4.73;3.20;;;8.10;99.90;;;;;;5078602;28;20236;-73
2023/05/07 05:37:22;;;;;;;4.67;2.90;;;8.30;99.90;;;;;;5083516;28;21238;-73
2023/05/07 05:40:13;;;;;;;3.83;2.60;;;8.30;99.90;;;;;;5079968;28;20230;-72
2023/05/07 05:43:02;;;;;;;4.27;2.90;;;8.40;99.90;;;;;;5081760;28;20234;-72
2023/05/07 05:45:52;;;;;;;3.30;2.73;;;8.50;99.90;;;;;;5095266;28;20280;-73
2023/05/07 05:48:41;;;;;;;4.20;3.00;;;8.50;99.90;;;;;;5077066;28;20224;-73
2023/05/07 05:51:32;;;;;;;4.13;2.77;;;8.30;99.90;;;;;;5083940;28;20280;-74
2023/05/07 05:54:21;;;;;;;4.10;2.70;;;8.30;99.90;;;;;;5071644;28;20267;-73
2023/05/07 05:57:11;;;;;;;3.87;2.70;;;8.30;99.90;;;;;;5065793;28;20745;-73
2023/05/07 06:00:01;;;;;;;5.60;2.87;;;8.20;99.90;;;;;;5080496;28;20227;-74
2023/05/07 06:02:53;;;;;;;3.30;2.30;;;8.20;99.90;;;;;;5083710;28;20234;-72
2023/05/07 06:05:44;;;;;;;2.87;2.30;;;8.00;99.90;;;;;;5111303;27;20218;-73
2023/05/07 06:08:33;;;;;;;2.80;2.50;;;8.10;99.90;;;;;;5077117;28;20389;-72
2023/05/07 06:11:22;;;;;;;2.50;2.30;;;8.40;99.90;;;;;;5076702;28;21079;-74
2023/05/07 06:14:13;;;;;;;2.30;2.10;;;8.20;99.90;;;;;;5074663;28;20792;-73
2023/05/07 06:17:02;;;;;;;4.60;2.60;;;8.50;99.90;;;;;;5078360;28;20218;-74
2023/05/07 06:19:51;;;;;;;3.83;2.50;;;8.40;99.90;;;;;;5076005;28;20216;-74
2023/05/07 06:22:41;;;;;;;4.23;2.37;;;8.50;99.90;;;;;;5083616;28;20321;-72
2023/05/07 06:25:32;;;;;;;3.00;2.57;;;8.40;99.90;;;;;;5072028;28;20240;-73
2023/05/07 06:28:21;;;;;;;3.37;2.53;;;8.70;99.90;;;;;;5082788;28;20224;-74
2023/05/07 06:31:16;;;;;;;3.53;2.37;;;8.90;99.90;;;;;;5091855;28;20237;-73
2023/05/07 06:34:14;;;;;;;3.53;2.37;;;9.20;99.90;;;;;;5097273;28;20231;-73
2023/05/07 06:37:04;;;;;;;3.40;2.30;;;9.00;99.90;;;;;;5077868;27;20233;-72
2023/05/07 06:40:08;;;;;;;3.73;2.40;;;8.80;99.90;;;;;;5092495;28;20226;-76
2023/05/07 06:42:59;;;;;;;2.50;2.30;;;8.90;99.90;;;;;;5079691;28;20236;-74
2023/05/07 06:46:02;;;;;;;2.50;2.30;;;8.80;99.90;;;;;;5092252;28;20372;-75
2023/05/07 06:48:53;;;;;;;3.50;2.10;;;8.80;99.90;;;;;;5083291;28;20957;-73
2023/05/07 06:51:42;;;;;;;4.87;2.60;;;8.70;99.90;;;;;;5081122;28;20227;-73
2023/05/07 06:54:31;;;;;;;5.07;2.20;;;8.80;99.90;;;;;;5075763;28;20242;-73
2023/05/07 06:57:19;;;;;;;2.30;2.10;;;8.80;99.90;;;;;;5078388;28;20696;-73
2023/05/07 07:00:09;;;;;;;3.63;2.27;;;8.60;99.90;;;;;;5076396;28;20696;-73
2023/05/07 07:03:07;;;;;;;3.00;2.47;;;8.50;99.90;;;;;;5062565;28;20231;-73
2023/05/07 07:05:58;;;;;;;3.47;2.90;;;8.70;99.90;;;;;;5067622;28;20231;-73
2023/05/07 07:08:47;;;;;;;3.00;2.60;;;8.90;99.90;;;;;;5084314;28;20890;-73
2023/05/07 07:11:38;;;;;;;2.60;2.40;;;8.70;99.90;;;;;;5083261;28;20215;-74
2023/05/07 07:14:27;;;;;;;6.13;2.57;;;8.80;99.90;;;;;;5080448;28;20211;-73
2023/05/07 07:17:16;;;;;;;3.13;2.30;;;8.80;99.90;;;;;;5083394;28;20223;-73
2023/05/07 07:20:06;;;;;;;4.10;2.40;;;8.90;99.90;;;;;;5076902;28;20255;-73
2023/05/07 07:22:59;;;;;;;3.10;2.37;;;9.20;99.90;;;;;;5070888;28;20329;-73
2023/05/07 07:25:48;;;;;;;2.87;2.57;;;9.20;99.90;;;;;;5075084;28;20235;-73
2023/05/07 07:28:43;;;;;;;3.53;2.27;;;9.20;99.90;;;;;;5077585;28;20954;-73
2023/05/07 07:31:35;;;;;;;2.67;2.27;;;9.10;99.90;;;;;;5077385;28;20323;-73
2023/05/07 07:34:24;;;;;;;4.10;2.70;;;9.40;99.90;;;;;;5073081;28;20261;-73
2023/05/07 07:37:14;;;;;;;4.57;2.60;;;9.60;99.90;;;;;;5083084;28;20367;-73
2023/05/07 07:40:04;;;;;;;3.93;2.47;;;9.70;99.90;;;;;;5084627;28;20610;-73
2023/05/07 07:42:55;;;;;;;3.27;2.50;;;9.80;99.90;;;;;;5064594;28;20687;-73
2023/05/07 07:45:45;;;;;;;4.35;2.35;;;10.20;99.90;;;;;;5086761;28;20216;-73
2023/05/07 07:48:35;;;;;;;2.50;2.30;;;10.20;99.90;;;;;;5083013;28;20578;-75
2023/05/07 07:51:23;;;;;;;3.30;2.37;;;10.10;99.90;;;;;;5081806;28;20218;-74
2023/05/07 07:54:12;;;;;;;3.00;2.47;;;10.50;99.90;;;;;;5079241;28;20722;-74
2023/05/07 07:57:03;;;;;;;3.53;2.42;;;10.50;99.90;;;;;;5088374;28;20342;-73
2023/05/07 07:59:54;;;;;;;3.33;2.37;;;10.20;99.90;;;;;;5086529;28;20281;-74
2023/05/07 08:02:43;;;;;;;2.92;2.03;;;10.30;99.90;;;;;;5082055;28;20228;-73
2023/05/07 08:05:40;;;;;;;3.00;2.20;;;10.20;99.90;;;;;;5086085;28;20266;-74
2023/05/07 08:08:29;;;;;;;3.30;2.60;;;10.20;99.90;;;;;;5077815;28;20227;-74
2023/05/07 08:11:18;;;;;;;4.22;2.30;;;10.10;99.90;;;;;;5085278;28;20232;-74
2023/05/07 08:14:09;;;;;;;3.20;2.10;;;10.00;99.90;;;;;;5078175;28;20250;-74
2023/05/07 08:16:58;;;;;;;3.50;2.45;;;10.00;99.90;;;;;;5079249;28;20239;-74
2023/05/07 08:19:47;;;;;;;5.03;2.63;;;10.20;99.90;;;;;;5084717;28;20219;-73
2023/05/07 08:22:36;;;;;;;2.95;2.42;;;10.50;99.90;;;;;;5080687;28;20217;-72
2023/05/07 08:25:25;;;;;;;3.05;2.10;;;11.10;99.90;;;;;;5080218;28;20231;-72
2023/05/07 08:28:15;;;;;;;4.47;2.30;;;10.90;99.90;;;;;;5073359;28;20252;-72
2023/05/07 08:31:05;;;;;;;3.60;2.40;;;10.50;99.90;;;;;;5085288;28;20333;-73
2023/05/07 08:33:58;;;;;;;4.38;2.20;;;11.00;99.90;;;;;;5085261;28;20242;-72
2023/05/07 08:36:48;;;;;;;3.10;2.00;;;11.20;99.90;;;;;;5075600;28;20228;-74
2023/05/07 08:39:40;;;;;;;2.65;2.15;;;11.00;99.90;;;;;;5081087;28;20302;-75
2023/05/07 08:42:37;;;;;;;4.43;2.25;;;10.50;99.90;;;;;;5076264;28;20430;-74
2023/05/07 08:45:28;;;;;;;2.85;2.08;;;10.90;99.90;;;;;;5073891;28;20293;-75
2023/05/07 08:48:20;;;;;;;2.80;2.25;;;12.00;99.90;;;;;;5084023;28;20231;-75
2023/05/07 08:51:18;;;;;;;3.10;2.00;;;12.60;99.90;;;;;;5080037;28;20417;-75
2023/05/07 08:54:08;;;;;;;2.90;2.10;;;12.40;99.90;;;;;;5071175;28;20295;-72
2023/05/07 08:56:57;;;;;;;3.90;2.10;;;12.60;99.90;;;;;;5081899;28;20230;-73
2023/05/07 08:59:46;;;;;;;3.58;2.25;;;11.80;99.90;;;;;;5070352;28;20224;-74
2023/05/07 09:02:37;;;;;;;3.33;2.05;;;11.90;99.90;;;;;;5082840;28;20250;-73
2023/05/07 09:05:28;;;;;;;4.97;2.03;;;11.60;99.90;;;;;;5075358;28;20223;-73
2023/05/07 09:08:17;;;;;;;5.63;2.25;;;11.20;99.90;;;;;;5078029;28;20679;-74
2023/05/07 09:11:09;;;;;;;3.88;2.15;;;10.80;99.90;;;;;;5084852;28;20226;-73
2023/05/07 09:14:01;;;;;;;3.72;2.20;;;10.80;99.90;;;;;;5083896;28;20705;-73
2023/05/07 09:16:54;;;;;;;2.40;2.00;;;11.00;99.90;;;;;;5081100;28;20219;-72
2023/05/07 09:19:45;;;;;;;2.65;1.98;;;11.20;99.90;;;;;;5076828;28;20216;-73
2023/05/07 09:22:37;;;;;;;5.50;2.05;;;11.50;99.90;;;;;;5111993;27;20710;-72
2023/05/07 09:25:31;;;;;;;2.60;1.90;;;11.40;99.90;;;;;;5083845;28;20219;-74
2023/05/07 09:28:24;;;;;;;4.57;2.20;;;11.50;99.90;;;;;;5085068;28;20425;-72
2023/05/07 09:31:13;;;;;;;4.38;1.92;;;11.10;99.90;;;;;;5080124;28;20984;-71
2023/05/07 09:34:03;;;;;;;1.83;1.70;;;10.90;99.90;;;;;;5082894;28;20285;-74
2023/05/07 09:36:54;;;;;;;4.45;2.40;;;11.40;99.90;;;;;;5078322;28;20238;-72
2023/05/07 09:39:47;;;;;;;2.80;1.90;;;11.80;99.90;;;;;;5080585;28;20721;-73
2023/05/07 09:42:39;;;;;;;6.50;1.92;;;12.90;99.90;;;;;;5070145;28;20731;-73
2023/05/07 09:45:28;;;;;;;4.18;1.90;;;12.30;99.90;;;;;;5084872;28;20235;-73
2023/05/07 09:48:20;;;;;;;3.22;2.22;;;11.90;99.90;;;;;;5109732;27;20235;-72
2023/05/07 09:51:22;;;;;;;3.42;1.95;;;11.60;99.90;;;;;;5070116;28;20227;-73
2023/05/07 09:54:11;;;;;;;3.40;1.88;;;11.50;99.90;;;;;;5072416;28;20235;-73
2023/05/07 09:57:06;;;;;;;2.42;1.88;;;11.70;99.90;;;;;;5075798;28;20231;-73
2023/05/07 09:59:57;;;;;;;4.22;2.25;;;11.90;99.90;;;;;;5077624;28;20224;-73
2023/05/07 10:02:51;;;;;;;4.72;2.28;;;11.90;99.90;;;;;;5062643;28;20441;-75
2023/05/07 10:05:48;;;;;;;3.75;2.17;;;11.90;99.90;;;;;;5068108;28;20332;-73
2023/05/07 10:08:37;;;;;;;3.17;2.13;;;11.60;99.90;;;;;;5070272;28;20240;-70
2023/05/07 10:11:29;;;;;;;3.58;2.00;;;11.60;99.90;;;;;;5108025;27;20224;-75
2023/05/07 10:14:23;;;;;;;3.28;1.90;;;12.70;99.90;;;;;;5079806;28;20692;-74
2023/05/07 10:17:13;;;;;;;3.03;1.90;;;12.50;99.90;;;;;;5068789;28;20285;-75
2023/05/07 10:20:04;;;;;;;2.05;1.70;;;12.20;99.90;;;;;;5074695;28;20307;-73
2023/05/07 10:22:56;;;;;;;2.67;1.70;;;11.60;99.90;;;;;;5072523;28;20857;-74
2023/05/07 10:25:54;;;;;;;3.17;2.15;;;11.40;99.90;;;;;;5072871;28;20215;-74
2023/05/07 10:28:59;;;;;;;2.50;1.77;;;11.40;99.90;;;;;;5080825;28;20227;-74
2023/05/07 10:31:59;;;;;;;6.22;1.80;;;11.40;99.90;;;;;;5083244;28;20247;-72
2023/05/07 10:34:54;;;;;;;1.65;1.55;;;11.50;99.90;;;;;;5073022;28;20214;-74
2023/05/07 10:37:43;;;;;;;2.55;2.08;;;11.10;99.90;;;;;;5078683;28;20407;-73
2023/05/07 10:40:33;;;;;;;3.95;1.60;;;11.10;99.90;;;;;;5103381;27;20379;-73
2023/05/07 10:43:23;;;;;;;2.25;1.65;;;10.90;99.90;;;;;;5070828;28;20231;-73
2023/05/07 10:46:19;;;;;;;5.80;1.90;;;10.90;99.90;;;;;;5075331;28;20713;-73
2023/05/07 10:49:22;;;;;;;2.17;1.85;;;10.80;99.90;;;;;;5069199;28;20230;-74
2023/05/07 10:52:21;;;;;;;1.98;1.73;;;11.10;99.90;;;;;;5083327;28;20670;-74
2023/05/07 10:55:27;;;;;;;3.95;2.05;;;11.40;99.90;;;;;;5074071;28;20258;-73
2023/05/07 10:58:42;;;;;;;3.47;2.20;;;11.50;99.90;;;;;;5081784;28;20255;-74
2023/05/07 11:01:52;;;;;;;5.93;1.98;;;11.60;99.90;;;;;;5077804;28;20365;-73
2023/05/07 11:05:21;;;;;;;2.33;1.73;;;11.50;99.90;;;;;;5069148;28;20227;-72
2023/05/07 11:08:54;;;;;;;3.63;2.10;;;11.30;99.90;;;;;;5073678;28;20220;-74
2023/05/07 11:11:50;;;;;;;3.22;1.98;;;11.60;99.90;;;;;;5072021;28;20310;-73
2023/05/07 11:14:47;;;;;;;2.83;1.90;;;12.40;99.90;;;;;;5076154;28;20231;-73
2023/05/07 11:17:58;;;;;;;2.53;1.80;;;12.50;99.90;;;;;;5072625;28;20298;-69
2023/05/07 11:21:00;;;;;;;2.45;1.48;;;13.00;99.90;;;;;;5083042;28;20227;-69
2023/05/07 11:24:00;;;;;;;2.40;1.67;;;13.40;99.90;;;;;;5083839;28;20332;-69
2023/05/07 11:26:55;;;;;;;3.60;1.88;;;13.40;99.90;;;;;;5077337;28;20235;-70
2023/05/07 11:29:48;;;;;;;3.20;1.70;;;13.00;99.90;;;;;;5080242;28;20217;-69
2023/05/07 11:32:37;;;;;;;4.25;1.90;;;12.20;99.90;;;;;;5081944;28;20299;-69
2023/05/07 11:35:26;;;;;;;4.40;2.35;;;11.70;99.90;;;;;;5078882;28;20211;-74
2023/05/07 11:38:19;;;;;;;2.03;1.83;;;12.10;99.90;;;;;;5092881;28;20232;-71
2023/05/07 11:41:08;;;;;;;3.08;1.63;;;12.60;99.90;;;;;;5082890;28;20222;-72
2023/05/07 11:43:59;;;;;;;2.15;1.77;;;12.70;99.90;;;;;;5083872;28;20223;-71
2023/05/07 11:46:49;;;;;;;5.68;1.85;;;12.40;99.90;;;;;;5078214;28;20306;-72
2023/05/07 11:49:38;;;;;;;2.38;1.77;;;12.80;99.90;;;;;;5073126;28;20223;-71
2023/05/07 11:52:27;;;;;;;2.17;1.98;;;12.80;99.90;;;;;;5086236;28;20211;-70
2023/05/07 11:55:20;;;;;;;2.80;1.70;;;13.30;99.90;;;;;;5082285;28;20440;-71
2023/05/07 11:58:11;;;;;;;4.55;2.08;;;12.80;99.90;;;;;;5085194;28;20223;-72
2023/05/07 12:01:00;;;;;;;2.80;2.00;;;12.90;99.90;;;;;;5074618;28;20693;-73
2023/05/07 12:03:49;;;;;;;3.63;1.70;;;12.80;99.90;;;;;;5080421;28;20284;-72
2023/05/07 12:06:39;;;;;;;4.13;1.70;;;12.50;99.90;;;;;;5086702;28;20227;-73
2023/05/07 12:09:28;;;;;;;2.30;1.67;;;12.40;99.90;;;;;;5093112;28;20299;-72
2023/05/07 12:12:18;;;;;;;1.85;1.75;;;12.60;99.90;;;;;;5084220;28;20537;-71
2023/05/07 12:15:08;;;;;;;3.15;1.90;;;12.40;99.90;;;;;;5085845;28;20227;-73
2023/05/07 12:17:57;;;;;;;2.75;1.80;;;12.10;99.90;;;;;;5110782;27;20310;-72
2023/05/07 12:20:46;;;;;;;3.85;1.90;;;12.30;99.90;;;;;;5089896;28;20220;-72
2023/05/07 12:23:37;;;;;;;2.90;1.70;;;12.60;99.90;;;;;;5081099;28;20219;-73
2023/05/07 12:26:26;;;;;;;3.03;1.77;;;12.60;99.90;;;;;;5090690;28;20676;-72
2023/05/07 12:29:16;;;;;;;3.65;1.60;;;12.90;99.90;;;;;;5089990;28;20219;-73
2023/05/07 12:32:06;;;;;;;2.63;2.13;;;13.40;99.90;;;;;;5082164;28;20701;-75
2023/05/07 12:34:55;;;;;;;2.35;1.63;;;12.80;99.90;;;;;;5073122;28;20228;-73
2023/05/07 12:37:55;;;;;;;2.67;2.00;;;12.60;99.90;;;;;;5085535;28;20208;-74
2023/05/07 12:40:45;;;;;;;4.57;2.15;;;12.80;99.90;;;;;;5075393;28;20360;-73
2023/05/07 12:43:34;;;;;;;2.35;1.48;;;12.80;99.90;;;;;;5093677;28;20222;-73
2023/05/07 12:46:24;;;;;;;2.63;1.60;;;13.20;99.90;;;;;;5069825;28;20232;-74
2023/05/07 12:49:13;;;;;;;3.67;1.70;;;13.00;99.90;;;;;;5099245;27;20262;-73
2023/05/07 12:52:02;;;;;;;2.75;1.58;;;13.00;99.90;;;;;;5079040;28;20717;-73
2023/05/07 12:54:51;;;;;;;4.65;1.90;;;12.50;99.90;;;;;;5097510;27;20223;-73
2023/05/07 12:57:41;;;;;;;2.20;1.80;;;12.20;99.90;;;;;;5072948;28;20227;-73
2023/05/07 13:00:35;;;;;;;2.00;1.50;;;12.20;99.90;;;;;;5072953;28;20547;-73
2023/05/07 13:03:27;;;;;;;2.42;1.42;;;12.40;99.90;;;;;;5074376;28;20227;-73
2023/05/07 13:06:16;;;;;;;2.00;1.50;;;12.60;99.90;;;;;;5071332;28;20222;-74
2023/05/07 13:09:06;;;;;;;2.28;1.73;;;12.50;99.90;;;;;;5076025;28;20300;-73
2023/05/07 13:11:55;;;;;;;2.20;1.40;;;12.50;99.90;;;;;;5082244;28;20223;-73
2023/05/07 13:14:44;;;;;;;3.53;1.45;;;12.50;99.90;;;;;;5080609;28;20225;-73
2023/05/07 13:17:33;;;;;;;3.10;1.52;;;12.80;99.90;;;;;;5073732;28;20540;-73
2023/05/07 13:20:23;;;;;;;2.20;1.50;;;12.90;99.90;;;;;;5071076;28;20682;-72
2023/05/07 13:23:12;;;;;;;2.92;1.55;;;12.70;99.90;;;;;;5075029;28;20358;-73
2023/05/07 13:26:01;;;;;;;3.22;1.88;;;12.30;99.90;;;;;;5081040;28;20231;-73
2023/05/07 13:28:59;;;;;;;4.63;1.90;;;12.40;99.90;;;;;;5067292;28;20247;-73
2023/05/07 13:31:48;;;;;;;3.17;1.70;;;12.60;99.90;;;;;;5073919;28;20220;-74
2023/05/07 13:34:38;;;;;;;3.33;1.80;;;12.60;99.90;;;;;;5080824;28;20223;-73
2023/05/07 13:37:28;;;;;;;2.40;1.83;;;12.60;99.90;;;;;;5075062;28;20311;-72
2023/05/07 13:40:17;;;;;;;2.65;1.58;;;12.60;99.90;;;;;;5095024;27;21119;-73
2023/05/07 13:43:07;;;;;;;2.78;1.60;;;12.60;99.90;;;;;;5078449;28;20216;-72
2023/05/07 13:45:56;;;;;;;4.88;1.70;;;12.60;99.90;;;;;;5076044;28;20254;-72
2023/05/07 13:48:45;;;;;;;3.85;1.88;;;12.60;99.90;;;;;;5073826;28;20721;-72
2023/05/07 13:51:34;;;;;;;1.95;1.38;;;12.70;99.90;;;;;;5066051;28;20823;-71
2023/05/07 13:54:24;;;;;;;4.25;1.50;;;12.80;99.90;;;;;;5072306;28;20232;-71
2023/05/07 13:57:13;;;;;;;4.07;1.77;;;12.70;99.90;;;;;;5078329;27;20227;-72
2023/05/07 14:00:06;;;;;;;5.03;1.70;;;12.60;99.90;;;;;;5067555;28;20344;-73
2023/05/07 14:03:03;;;;;;;5.50;2.08;;;12.90;99.90;;;;;;5067036;28;20215;-72
2023/05/07 14:05:52;;;;;;;2.22;1.38;;;12.80;99.90;;;;;;5067717;28;20236;-71
2023/05/07 14:08:41;;;;;;;2.25;1.70;;;12.90;99.90;;;;;;5070461;28;20219;-75
2023/05/07 14:11:34;;;;;;;3.15;1.73;;;12.80;99.90;;;;;;5071724;28;20292;-76
2023/05/07 14:14:24;;;;;;;4.93;1.88;;;12.70;99.90;;;;;;5072474;28;20311;-73
2023/05/07 14:17:12;;;;;;;4.18;1.70;;;12.80;99.90;;;;;;5071950;28;20239;-72
2023/05/07 14:20:02;;;;;;;3.10;1.80;;;12.80;99.90;;;;;;5074532;28;20272;-73
2023/05/07 14:22:51;;;;;;;3.17;2.00;;;12.70;99.90;;;;;;5072444;28;20230;-72
2023/05/07 14:25:40;;;;;;;3.45;1.70;;;12.60;99.90;;;;;;5068079;28;20847;-72
2023/05/07 14:28:32;;;;;;;1.90;1.50;;;12.50;99.90;;;;;;5072166;28;20580;-73
2023/05/07 14:31:21;;;;;;;3.13;1.90;;;12.50;99.90;;;;;;5074254;28;20752;-72
2023/05/07 14:34:10;;;;;;;2.13;1.73;;;12.30;99.90;;;;;;5067212;28;20224;-70
2023/05/07 14:36:59;;;;;;;3.22;1.77;;;12.20;99.90;;;;;;5067006;28;20247;-69
2023/05/07 14:39:48;;;;;;;6.40;1.80;;;12.30;99.90;;;;;;5070859;28;20289;-70
2023/05/07 14:42:38;;;;;;;2.30;1.80;;;12.30;99.90;;;;;;5070106;28;20215;-71
2023/05/07 14:45:29;;;;;;;2.53;1.90;;;12.10;99.90;;;;;;5071140;28;20215;-72
2023/05/07 14:48:18;;;;;;;3.83;1.58;;;12.20;99.90;;;;;;5073838;28;20231;-72
2023/05/07 14:51:08;;;;;;;2.72;1.70;;;12.40;99.90;;;;;;5070732;28;20254;-71
2023/05/07 14:53:57;;;;;;;4.43;1.83;;;12.50;99.90;;;;;;5076569;28;20228;-71
2023/05/07 14:56:46;;;;;;;3.10;1.70;;;12.70;99.90;;;;;;5072339;28;20227;-72